sensor_id;sensor_type;location;lat;lon;timestamp;pressure;altitude;pressure_sealevel;temperature;humidity
34506;BME280;20748;42.632;23.198;2022-10-16T00:00:53;92618.09;;;5.86;87.70
34506;BME280;20748;42.632;23.198;2022-10-16T00:03:25;92617.34;;;5.86;87.68
34506;BME280;20748;42.632;23.198;2022-10-16T00:06:01;92617.03;;;5.72;87.54
34506;BME280;20748;42.632;23.198;2022-10-16T00:08:34;92628.09;;;5.67;87.88
34506;BME280;20748;42.632;23.198;2022-10-16T00:11:07;92632.50;;;5.61;87.66
34506;BME280;20748;42.632;23.198;2022-10-16T00:13:40;92631.69;;;5.56;87.91
34506;BME280;20748;42.632;23.198;2022-10-16T00:16:13;92637.63;;;5.56;88.29
34506;BME280;20748;42.632;23.198;2022-10-16T00:18:46;92631.97;;;5.59;87.94
34506;BME280;20748;42.632;23.198;2022-10-16T00:21:19;92628.34;;;5.60;87.93
34506;BME280;20748;42.632;23.198;2022-10-16T00:24:10;92633.28;;;5.62;87.35
34506;BME280;20748;42.632;23.198;2022-10-16T00:26:42;92640.25;;;5.61;86.98
34506;BME280;20748;42.632;23.198;2022-10-16T00:29:14;92635.84;;;5.57;86.88
34506;BME280;20748;42.632;23.198;2022-10-16T00:31:47;92634.25;;;5.50;87.02
34506;BME280;20748;42.632;23.198;2022-10-16T00:34:20;92635.06;;;5.56;86.95
34506;BME280;20748;42.632;23.198;2022-10-16T00:36:52;92643.34;;;5.53;86.75
34506;BME280;20748;42.632;23.198;2022-10-16T00:39:24;92642.75;;;5.46;86.62
34506;BME280;20748;42.632;23.198;2022-10-16T00:41:57;92631.09;;;5.38;87.42
34506;BME280;20748;42.632;23.198;2022-10-16T00:44:42;92629.50;;;5.37;88.12
34506;BME280;20748;42.632;23.198;2022-10-16T00:47:17;92632.88;;;5.37;87.80
34506;BME280;20748;42.632;23.198;2022-10-16T00:49:51;92629.47;;;5.27;87.47
34506;BME280;20748;42.632;23.198;2022-10-16T00:52:24;92635.94;;;5.29;87.87
34506;BME280;20748;42.632;23.198;2022-10-16T00:54:57;92631.22;;;5.21;88.55
34506;BME280;20748;42.632;23.198;2022-10-16T00:57:30;92624.50;;;5.20;88.46
34506;BME280;20748;42.632;23.198;2022-10-16T01:00:03;92629.19;;;5.23;88.53
34506;BME280;20748;42.632;23.198;2022-10-16T01:02:36;92627.59;;;5.22;88.30
34506;BME280;20748;42.632;23.198;2022-10-16T01:05:08;92629.19;;;5.23;88.72
34506;BME280;20748;42.632;23.198;2022-10-16T01:07:43;92628.38;;;5.22;89.09
34506;BME280;20748;42.632;23.198;2022-10-16T01:10:21;92632.25;;;5.20;88.79
34506;BME280;20748;42.632;23.198;2022-10-16T01:12:57;92632.50;;;5.18;88.57
34506;BME280;20748;42.632;23.198;2022-10-16T01:15:32;92636.59;;;5.09;88.40
34506;BME280;20748;42.632;23.198;2022-10-16T01:18:08;92637.63;;;5.13;88.75
34506;BME280;20748;42.632;23.198;2022-10-16T01:20:44;92634.22;;;5.07;88.38
34506;BME280;20748;42.632;23.198;2022-10-16T01:23:21;92631.41;;;5.09;88.98
34506;BME280;20748;42.632;23.198;2022-10-16T01:26:02;92629.59;;;5.09;88.93
34506;BME280;20748;42.632;23.198;2022-10-16T01:28:41;92622.63;;;5.10;88.65
34506;BME280;20748;42.632;23.198;2022-10-16T01:31:18;92619.22;;;5.09;89.57
34506;BME280;20748;42.632;23.198;2022-10-16T01:33:51;92614.09;;;5.15;89.84
34506;BME280;20748;42.632;23.198;2022-10-16T01:36:29;92631.44;;;5.14;89.88
34506;BME280;20748;42.632;23.198;2022-10-16T01:39:03;92635.25;;;5.06;89.18
34506;BME280;20748;42.632;23.198;2022-10-16T01:41:36;92632.69;;;5.06;88.88
34506;BME280;20748;42.632;23.198;2022-10-16T01:44:10;92634.72;;;5.04;89.01
34506;BME280;20748;42.632;23.198;2022-10-16T01:46:43;92634.97;;;5.03;89.20
34506;BME280;20748;42.632;23.198;2022-10-16T01:49:17;92646.09;;;5.03;89.29
34506;BME280;20748;42.632;23.198;2022-10-16T01:51:52;92641.91;;;4.97;89.11
34506;BME280;20748;42.632;23.198;2022-10-16T01:54:25;92637.78;;;4.96;89.72
34506;BME280;20748;42.632;23.198;2022-10-16T01:56:59;92645.44;;;4.86;90.35
34506;BME280;20748;42.632;23.198;2022-10-16T01:59:35;92645.47;;;4.91;90.74
34506;BME280;20748;42.632;23.198;2022-10-16T02:02:09;92649.09;;;4.90;90.92
34506;BME280;20748;42.632;23.198;2022-10-16T02:04:43;92651.16;;;4.88;90.49
34506;BME280;20748;42.632;23.198;2022-10-16T02:07:15;92655.31;;;4.89;89.88
34506;BME280;20748;42.632;23.198;2022-10-16T02:09:48;92657.13;;;4.93;89.92
34506;BME280;20748;42.632;23.198;2022-10-16T02:12:21;92658.69;;;4.94;89.21
34506;BME280;20748;42.632;23.198;2022-10-16T02:14:56;92665.88;;;4.87;89.26
34506;BME280;20748;42.632;23.198;2022-10-16T02:17:29;92670.19;;;4.76;90.10
34506;BME280;20748;42.632;23.198;2022-10-16T02:20:01;92668.38;;;4.77;90.39
34506;BME280;20748;42.632;23.198;2022-10-16T02:22:34;92670.16;;;4.71;90.64
34506;BME280;20748;42.632;23.198;2022-10-16T02:25:08;92672.97;;;4.69;91.29
34506;BME280;20748;42.632;23.198;2022-10-16T02:27:42;92675.03;;;4.73;90.78
34506;BME280;20748;42.632;23.198;2022-10-16T02:30:19;92677.94;;;4.76;91.36
34506;BME280;20748;42.632;23.198;2022-10-16T02:32:53;92673.75;;;4.70;90.58
34506;BME280;20748;42.632;23.198;2022-10-16T02:35:25;92667.59;;;4.76;90.17
34506;BME280;20748;42.632;23.198;2022-10-16T02:37:58;92677.91;;;4.71;89.46
34506;BME280;20748;42.632;23.198;2022-10-16T02:40:30;92673.75;;;4.70;89.56
34506;BME280;20748;42.632;23.198;2022-10-16T02:43:03;92685.38;;;4.67;89.82
34506;BME280;20748;42.632;23.198;2022-10-16T02:45:36;92680.97;;;4.68;89.32
34506;BME280;20748;42.632;23.198;2022-10-16T02:48:08;92681.69;;;4.63;88.98
34506;BME280;20748;42.632;23.198;2022-10-16T02:50:40;92687.91;;;4.62;89.92
34506;BME280;20748;42.632;23.198;2022-10-16T02:53:12;92688.19;;;4.66;89.98
34506;BME280;20748;42.632;23.198;2022-10-16T02:55:44;92681.13;;;4.56;89.21
34506;BME280;20748;42.632;23.198;2022-10-16T02:58:16;92683.16;;;4.54;90.04
34506;BME280;20748;42.632;23.198;2022-10-16T03:00:50;92683.66;;;4.51;90.08
34506;BME280;20748;42.632;23.198;2022-10-16T03:03:22;92683.41;;;4.52;90.16
34506;BME280;20748;42.632;23.198;2022-10-16T03:05:54;92689.63;;;4.56;91.02
34506;BME280;20748;42.632;23.198;2022-10-16T03:08:26;92683.66;;;4.51;89.44
34506;BME280;20748;42.632;23.198;2022-10-16T03:10:58;92683.34;;;4.47;90.35
34506;BME280;20748;42.632;23.198;2022-10-16T03:13:32;92683.47;;;4.35;89.98
34506;BME280;20748;42.632;23.198;2022-10-16T03:16:05;92685.41;;;4.23;90.63
34506;BME280;20748;42.632;23.198;2022-10-16T03:18:37;92676.88;;;4.22;91.37
34506;BME280;20748;42.632;23.198;2022-10-16T03:21:09;92682.94;;;4.33;90.81
34506;BME280;20748;42.632;23.198;2022-10-16T03:23:41;92679.34;;;4.34;90.61
34506;BME280;20748;42.632;23.198;2022-10-16T03:26:13;92684.03;;;4.37;90.57
34506;BME280;20748;42.632;23.198;2022-10-16T03:28:45;92684.56;;;4.39;89.20
34506;BME280;20748;42.632;23.198;2022-10-16T03:31:17;92687.16;;;4.39;89.04
34506;BME280;20748;42.632;23.198;2022-10-16T03:33:50;92691.66;;;4.27;89.69
34506;BME280;20748;42.632;23.198;2022-10-16T03:36:22;92693.22;;;4.28;89.17
34506;BME280;20748;42.632;23.198;2022-10-16T03:38:54;92694.72;;;4.24;89.56
34506;BME280;20748;42.632;23.198;2022-10-16T03:41:26;92685.16;;;4.24;89.69
34506;BME280;20748;42.632;23.198;2022-10-16T03:43:58;92683.19;;;4.32;89.91
34506;BME280;20748;42.632;23.198;2022-10-16T03:46:30;92682.34;;;4.26;90.56
34506;BME280;20748;42.632;23.198;2022-10-16T03:49:03;92681.50;;;4.20;90.44
34506;BME280;20748;42.632;23.198;2022-10-16T03:51:39;92690.56;;;4.23;90.28
34506;BME280;20748;42.632;23.198;2022-10-16T03:54:12;92683.00;;;4.16;89.43
34506;BME280;20748;42.632;23.198;2022-10-16T03:56:44;92682.22;;;4.15;89.39
34506;BME280;20748;42.632;23.198;2022-10-16T03:59:16;92679.66;;;4.15;89.68
34506;BME280;20748;42.632;23.198;2022-10-16T04:01:48;92686.84;;;4.13;89.25
34506;BME280;20748;42.632;23.198;2022-10-16T04:04:20;92688.13;;;4.11;89.40
34506;BME280;20748;42.632;23.198;2022-10-16T04:06:52;92683.19;;;4.09;89.82
34506;BME280;20748;42.632;23.198;2022-10-16T04:09:24;92674.88;;;4.07;89.99
34506;BME280;20748;42.632;23.198;2022-10-16T04:11:56;92677.25;;;4.09;89.76
34506;BME280;20748;42.632;23.198;2022-10-16T04:14:28;92676.88;;;4.00;89.51
34506;BME280;20748;42.632;23.198;2022-10-16T04:17:01;92679.47;;;4.00;90.11
34506;BME280;20748;42.632;23.198;2022-10-16T04:19:33;92680.72;;;3.97;90.05
34506;BME280;20748;42.632;23.198;2022-10-16T04:22:05;92678.38;;;3.96;90.00
34506;BME280;20748;42.632;23.198;2022-10-16T04:24:37;92686.00;;;3.85;90.53
34506;BME280;20748;42.632;23.198;2022-10-16T04:27:09;92683.97;;;3.87;90.72
34506;BME280;20748;42.632;23.198;2022-10-16T04:29:41;92678.63;;;3.94;90.38
34506;BME280;20748;42.632;23.198;2022-10-16T04:32:14;92686.06;;;3.91;90.61
34506;BME280;20748;42.632;23.198;2022-10-16T04:34:46;92678.50;;;3.84;89.91
34506;BME280;20748;42.632;23.198;2022-10-16T04:37:18;92685.72;;;3.82;90.43
34506;BME280;20748;42.632;23.198;2022-10-16T04:39:50;92682.63;;;3.85;91.34
34506;BME280;20748;42.632;23.198;2022-10-16T04:42:22;92678.25;;;3.85;90.36
34506;BME280;20748;42.632;23.198;2022-10-16T04:44:54;92677.41;;;3.80;90.70
34506;BME280;20748;42.632;23.198;2022-10-16T04:47:27;92678.97;;;3.81;91.25
34506;BME280;20748;42.632;23.198;2022-10-16T04:49:59;92685.16;;;3.80;90.93
34506;BME280;20748;42.632;23.198;2022-10-16T04:52:33;92685.63;;;3.76;90.83
34506;BME280;20748;42.632;23.198;2022-10-16T04:55:06;92691.56;;;3.77;90.57
34506;BME280;20748;42.632;23.198;2022-10-16T04:57:39;92703.78;;;3.65;90.91
34506;BME280;20748;42.632;23.198;2022-10-16T05:00:12;92705.91;;;3.68;90.66
34506;BME280;20748;42.632;23.198;2022-10-16T05:02:45;92707.63;;;3.62;91.30
34506;BME280;20748;42.632;23.198;2022-10-16T05:05:17;92704.03;;;3.63;91.48
34506;BME280;20748;42.632;23.198;2022-10-16T05:07:50;92709.81;;;3.70;91.79
34506;BME280;20748;42.632;23.198;2022-10-16T05:10:22;92708.72;;;3.66;91.75
34506;BME280;20748;42.632;23.198;2022-10-16T05:12:54;92704.50;;;3.60;93.77
34506;BME280;20748;42.632;23.198;2022-10-16T05:15:26;92714.97;;;3.53;94.47
34506;BME280;20748;42.632;23.198;2022-10-16T05:18:00;92718.66;;;3.57;93.53
34506;BME280;20748;42.632;23.198;2022-10-16T05:20:32;92718.50;;;3.64;92.47
34506;BME280;20748;42.632;23.198;2022-10-16T05:23:04;92715.97;;;3.69;92.03
34506;BME280;20748;42.632;23.198;2022-10-16T05:25:36;92715.97;;;3.69;92.45
34506;BME280;20748;42.632;23.198;2022-10-16T05:28:08;92717.06;;;3.73;92.97
34506;BME280;20748;42.632;23.198;2022-10-16T05:30:40;92719.19;;;3.76;92.68
34506;BME280;20748;42.632;23.198;2022-10-16T05:33:13;92725.69;;;3.79;93.33
34506;BME280;20748;42.632;23.198;2022-10-16T05:35:45;92728.41;;;3.72;92.60
34506;BME280;20748;42.632;23.198;2022-10-16T05:38:17;92721.22;;;3.74;93.08
34506;BME280;20748;42.632;23.198;2022-10-16T05:40:52;92723.56;;;3.76;93.83
34506;BME280;20748;42.632;23.198;2022-10-16T05:43:24;92731.59;;;3.80;94.91
34506;BME280;20748;42.632;23.198;2022-10-16T05:45:57;92728.94;;;3.92;97.23
34506;BME280;20748;42.632;23.198;2022-10-16T05:48:30;92735.63;;;4.10;100.00
34506;BME280;20748;42.632;23.198;2022-10-16T05:51:04;92733.16;;;4.20;100.00
34506;BME280;20748;42.632;23.198;2022-10-16T05:53:36;92736.41;;;4.33;100.00
34506;BME280;20748;42.632;23.198;2022-10-16T05:56:10;92737.31;;;4.43;100.00
34506;BME280;20748;42.632;23.198;2022-10-16T05:58:42;92743.31;;;4.49;100.00
34506;BME280;20748;42.632;23.198;2022-10-16T06:01:16;92741.16;;;4.63;100.00
34506;BME280;20748;42.632;23.198;2022-10-16T06:03:49;92744.38;;;4.76;100.00
34506;BME280;20748;42.632;23.198;2022-10-16T06:06:21;92749.44;;;4.93;100.00
34506;BME280;20748;42.632;23.198;2022-10-16T06:08:54;92757.06;;;5.05;100.00
34506;BME280;20748;42.632;23.198;2022-10-16T06:11:27;92755.16;;;5.22;100.00
34506;BME280;20748;42.632;23.198;2022-10-16T06:14:00;92751.41;;;5.41;100.00
34506;BME280;20748;42.632;23.198;2022-10-16T06:16:34;92764.69;;;5.49;100.00
34506;BME280;20748;42.632;23.198;2022-10-16T06:19:07;92761.97;;;5.67;100.00
34506;BME280;20748;42.632;23.198;2022-10-16T06:21:39;92763.38;;;5.80;100.00
34506;BME280;20748;42.632;23.198;2022-10-16T06:24:11;92762.22;;;6.03;100.00
34506;BME280;20748;42.632;23.198;2022-10-16T06:26:43;92769.31;;;6.18;100.00
34506;BME280;20748;42.632;23.198;2022-10-16T06:29:15;92770.13;;;6.24;100.00
34506;BME280;20748;42.632;23.198;2022-10-16T06:31:47;92773.34;;;6.41;100.00
34506;BME280;20748;42.632;23.198;2022-10-16T06:34:20;92767.69;;;6.60;100.00
34506;BME280;20748;42.632;23.198;2022-10-16T06:36:52;92772.94;;;6.81;100.00
34506;BME280;20748;42.632;23.198;2022-10-16T06:39:24;92778.44;;;6.95;100.00
34506;BME280;20748;42.632;23.198;2022-10-16T06:41:56;92786.25;;;7.05;98.34
34506;BME280;20748;42.632;23.198;2022-10-16T06:44:33;92789.41;;;7.23;97.42
34506;BME280;20748;42.632;23.198;2022-10-16T06:47:05;92785.25;;;7.27;96.80
34506;BME280;20748;42.632;23.198;2022-10-16T06:49:39;92783.69;;;7.42;96.02
34506;BME280;20748;42.632;23.198;2022-10-16T06:52:11;92789.97;;;7.51;95.99
34506;BME280;20748;42.632;23.198;2022-10-16T06:54:43;92788.41;;;7.45;98.98
34506;BME280;20748;42.632;23.198;2022-10-16T06:57:15;92789.66;;;7.47;99.07
34506;BME280;20748;42.632;23.198;2022-10-16T06:59:47;92792.53;;;7.46;98.54
34506;BME280;20748;42.632;23.198;2022-10-16T07:02:24;92795.38;;;7.44;98.72
34506;BME280;20748;42.632;23.198;2022-10-16T07:04:57;92804.22;;;7.43;99.35
34506;BME280;20748;42.632;23.198;2022-10-16T07:07:29;92803.41;;;7.37;99.19
34506;BME280;20748;42.632;23.198;2022-10-16T07:10:02;92812.25;;;7.42;99.63
34506;BME280;20748;42.632;23.198;2022-10-16T07:12:34;92804.47;;;7.42;99.49
34506;BME280;20748;42.632;23.198;2022-10-16T07:15:06;92802.91;;;7.61;100.00
34506;BME280;20748;42.632;23.198;2022-10-16T07:17:38;92808.66;;;7.58;99.65
34506;BME280;20748;42.632;23.198;2022-10-16T07:20:11;92815.66;;;7.52;98.67
34506;BME280;20748;42.632;23.198;2022-10-16T07:22:43;92819.53;;;7.50;99.38
34506;BME280;20748;42.632;23.198;2022-10-16T07:25:15;92816.69;;;7.57;99.80
34506;BME280;20748;42.632;23.198;2022-10-16T07:27:47;92816.16;;;7.65;99.20
34506;BME280;20748;42.632;23.198;2022-10-16T07:30:19;92811.25;;;7.69;99.04
34506;BME280;20748;42.632;23.198;2022-10-16T07:32:51;92816.44;;;7.84;98.46
34506;BME280;20748;42.632;23.198;2022-10-16T07:35:32;92814.88;;;7.93;97.77
34506;BME280;20748;42.632;23.198;2022-10-16T07:38:04;92816.94;;;7.97;98.48
34506;BME280;20748;42.632;23.198;2022-10-16T07:40:36;92818.50;;;8.13;96.79
34506;BME280;20748;42.632;23.198;2022-10-16T07:43:08;92824.19;;;8.26;96.17
34506;BME280;20748;42.632;23.198;2022-10-16T07:45:46;92828.59;;;8.41;95.39
34506;BME280;20748;42.632;23.198;2022-10-16T07:48:18;92823.91;;;8.58;95.00
34506;BME280;20748;42.632;23.198;2022-10-16T07:50:51;92836.13;;;8.58;93.44
34506;BME280;20748;42.632;23.198;2022-10-16T07:53:23;92836.81;;;8.90;93.27
34506;BME280;20748;42.632;23.198;2022-10-16T07:55:58;92839.25;;;9.26;91.84
34506;BME280;20748;42.632;23.198;2022-10-16T07:58:30;92843.09;;;9.39;89.93
34506;BME280;20748;42.632;23.198;2022-10-16T08:01:03;92847.75;;;9.47;90.14
34506;BME280;20748;42.632;23.198;2022-10-16T08:03:35;92840.44;;;9.49;88.38
34506;BME280;20748;42.632;23.198;2022-10-16T08:06:08;92843.81;;;9.50;88.45
34506;BME280;20748;42.632;23.198;2022-10-16T08:08:40;92836.75;;;9.56;87.90
34506;BME280;20748;42.632;23.198;2022-10-16T08:11:12;92842.59;;;9.77;87.53
34506;BME280;20748;42.632;23.198;2022-10-16T08:13:45;92842.75;;;9.91;86.29
34506;BME280;20748;42.632;23.198;2022-10-16T08:16:17;92850.69;;;10.10;86.33
34506;BME280;20748;42.632;23.198;2022-10-16T08:18:49;92851.13;;;10.23;85.29
34506;BME280;20748;42.632;23.198;2022-10-16T08:21:23;92846.50;;;10.44;83.01
34506;BME280;20748;42.632;23.198;2022-10-16T08:23:55;92852.44;;;10.55;82.62
34506;BME280;20748;42.632;23.198;2022-10-16T08:26:29;92846.59;;;10.63;81.93
34506;BME280;20748;42.632;23.198;2022-10-16T08:29:01;92855.03;;;10.79;80.06
34506;BME280;20748;42.632;23.198;2022-10-16T08:31:33;92854.94;;;11.14;79.08
34506;BME280;20748;42.632;23.198;2022-10-16T08:34:05;92855.88;;;11.43;77.17
34506;BME280;20748;42.632;23.198;2022-10-16T08:36:38;92856.03;;;11.71;76.56
34506;BME280;20748;42.632;23.198;2022-10-16T08:39:10;92850.47;;;11.91;75.71
34506;BME280;20748;42.632;23.198;2022-10-16T08:41:50;92853.97;;;12.06;73.40
34506;BME280;20748;42.632;23.198;2022-10-16T08:44:40;92845.38;;;12.19;72.79
34506;BME280;20748;42.632;23.198;2022-10-16T08:47:17;92846.91;;;12.20;72.33
34506;BME280;20748;42.632;23.198;2022-10-16T08:49:54;92849.63;;;12.15;72.68
34506;BME280;20748;42.632;23.198;2022-10-16T08:52:29;92851.50;;;12.29;71.78
34506;BME280;20748;42.632;23.198;2022-10-16T08:55:01;92862.31;;;12.41;71.29
34506;BME280;20748;42.632;23.198;2022-10-16T08:57:35;92849.72;;;12.57;70.11
34506;BME280;20748;42.632;23.198;2022-10-16T09:00:11;92862.81;;;12.57;70.27
34506;BME280;20748;42.632;23.198;2022-10-16T09:02:45;92864.91;;;12.55;69.79
34506;BME280;20748;42.632;23.198;2022-10-16T09:05:23;92870.06;;;12.60;68.42
34506;BME280;20748;42.632;23.198;2022-10-16T09:08:00;92866.50;;;12.70;68.79
34506;BME280;20748;42.632;23.198;2022-10-16T09:10:43;92866.13;;;12.77;68.79
34506;BME280;20748;42.632;23.198;2022-10-16T09:13:21;92863.38;;;12.68;67.60
34506;BME280;20748;42.632;23.198;2022-10-16T09:15:58;92863.50;;;12.77;69.23
34506;BME280;20748;42.632;23.198;2022-10-16T09:18:34;92861.56;;;12.97;66.50
34506;BME280;20748;42.632;23.198;2022-10-16T09:21:09;92854.28;;;12.94;65.09
34506;BME280;20748;42.632;23.198;2022-10-16T09:23:45;92852.84;;;13.01;63.38
34506;BME280;20748;42.632;23.198;2022-10-16T09:26:18;92859.34;;;13.04;63.55
34506;BME280;20748;42.632;23.198;2022-10-16T09:28:58;92855.66;;;13.19;64.00
34506;BME280;20748;42.632;23.198;2022-10-16T09:31:30;92855.81;;;13.37;61.15
34506;BME280;20748;42.632;23.198;2022-10-16T09:34:02;92853.69;;;13.39;60.80
34506;BME280;20748;42.632;23.198;2022-10-16T09:36:39;92857.28;;;13.43;59.97
34506;BME280;20748;42.632;23.198;2022-10-16T09:39:12;92856.47;;;13.42;57.96
34506;BME280;20748;42.632;23.198;2022-10-16T09:41:44;92857.47;;;13.47;57.70
34506;BME280;20748;42.632;23.198;2022-10-16T09:44:18;92862.63;;;13.52;57.67
34506;BME280;20748;42.632;23.198;2022-10-16T09:47:00;92854.31;;;13.73;55.86
34506;BME280;20748;42.632;23.198;2022-10-16T09:49:32;92848.47;;;13.76;56.77
34506;BME280;20748;42.632;23.198;2022-10-16T09:52:06;92849.81;;;13.87;54.12
34506;BME280;20748;42.632;23.198;2022-10-16T09:54:49;92838.13;;;13.93;53.10
34506;BME280;20748;42.632;23.198;2022-10-16T09:57:21;92839.84;;;13.98;52.31
34506;BME280;20748;42.632;23.198;2022-10-16T09:59:54;92836.63;;;14.01;52.57
34506;BME280;20748;42.632;23.198;2022-10-16T10:02:28;92837.38;;;14.02;52.94
34506;BME280;20748;42.632;23.198;2022-10-16T10:05:01;92833.63;;;13.94;51.51
34506;BME280;20748;42.632;23.198;2022-10-16T10:07:35;92841.44;;;14.08;51.27
34506;BME280;20748;42.632;23.198;2022-10-16T10:10:19;92842.81;;;14.28;50.84
34506;BME280;20748;42.632;23.198;2022-10-16T10:12:52;92848.66;;;14.48;51.43
34506;BME280;20748;42.632;23.198;2022-10-16T10:15:24;92846.03;;;14.48;50.38
34506;BME280;20748;42.632;23.198;2022-10-16T10:17:58;92846.69;;;14.62;51.53
34506;BME280;20748;42.632;23.198;2022-10-16T10:20:31;92844.50;;;14.56;50.02
34506;BME280;20748;42.632;23.198;2022-10-16T10:23:15;92847.75;;;14.53;49.52
34506;BME280;20748;42.632;23.198;2022-10-16T10:25:52;92834.97;;;14.69;49.41
34506;BME280;20748;42.632;23.198;2022-10-16T10:28:36;92834.13;;;14.82;48.79
34506;BME280;20748;42.632;23.198;2022-10-16T10:31:13;92834.31;;;14.95;47.49
34506;BME280;20748;42.632;23.198;2022-10-16T10:33:47;92832.31;;;14.92;48.17
34506;BME280;20748;42.632;23.198;2022-10-16T10:36:24;92835.94;;;15.13;47.81
34506;BME280;20748;42.632;23.198;2022-10-16T10:38:58;92829.47;;;15.20;47.04
34506;BME280;20748;42.632;23.198;2022-10-16T10:44:23;92817.28;;;15.59;46.62
34506;BME280;20748;42.632;23.198;2022-10-16T10:46:57;92821.28;;;15.48;46.69
34506;BME280;20748;42.632;23.198;2022-10-16T10:49:39;92819.00;;;15.64;46.48
34506;BME280;20748;42.632;23.198;2022-10-16T10:52:26;92818.06;;;15.60;45.64
34506;BME280;20748;42.632;23.198;2022-10-16T10:55:08;92814.03;;;15.53;45.12
34506;BME280;20748;42.632;23.198;2022-10-16T10:57:45;92809.25;;;15.64;45.39
34506;BME280;20748;42.632;23.198;2022-10-16T11:00:25;92807.09;;;15.75;45.21
34506;BME280;20748;42.632;23.198;2022-10-16T11:03:02;92806.75;;;15.86;45.35
34506;BME280;20748;42.632;23.198;2022-10-16T11:05:40;92805.38;;;15.79;44.80
34506;BME280;20748;42.632;23.198;2022-10-16T11:08:13;92808.78;;;15.89;43.90
34506;BME280;20748;42.632;23.198;2022-10-16T11:10:50;92805.22;;;15.76;43.35
34506;BME280;20748;42.632;23.198;2022-10-16T11:13:26;92796.38;;;15.54;44.44
34506;BME280;20748;42.632;23.198;2022-10-16T11:16:03;92805.53;;;15.56;45.88
34506;BME280;20748;42.632;23.198;2022-10-16T11:18:42;92798.56;;;15.69;45.05
34506;BME280;20748;42.632;23.198;2022-10-16T11:21:18;92804.63;;;15.70;43.87
34506;BME280;20748;42.632;23.198;2022-10-16T11:23:52;92803.06;;;15.78;45.00
34506;BME280;20748;42.632;23.198;2022-10-16T11:26:26;92793.94;;;15.84;43.38
34506;BME280;20748;42.632;23.198;2022-10-16T11:28:59;92798.25;;;16.15;43.71
34506;BME280;20748;42.632;23.198;2022-10-16T11:31:34;92797.59;;;16.27;41.86
34506;BME280;20748;42.632;23.198;2022-10-16T11:34:09;92796.38;;;16.16;41.27
34506;BME280;20748;42.632;23.198;2022-10-16T11:36:49;92791.59;;;16.18;41.33
34506;BME280;20748;42.632;23.198;2022-10-16T11:39:24;92788.03;;;16.05;41.02
34506;BME280;20748;42.632;23.198;2022-10-16T11:41:59;92806.31;;;16.01;42.25
34506;BME280;20748;42.632;23.198;2022-10-16T11:44:37;92801.63;;;16.24;41.47
34506;BME280;20748;42.632;23.198;2022-10-16T11:47:15;92802.16;;;16.57;40.48
34506;BME280;20748;42.632;23.198;2022-10-16T11:50:13;92795.50;;;16.59;40.55
34506;BME280;20748;42.632;23.198;2022-10-16T11:52:51;92799.06;;;16.63;40.20
34506;BME280;20748;42.632;23.198;2022-10-16T11:55:32;92795.94;;;16.61;40.90
34506;BME280;20748;42.632;23.198;2022-10-16T11:58:06;92796.72;;;16.62;39.62
34506;BME280;20748;42.632;23.198;2022-10-16T12:00:40;92797.00;;;16.69;39.70
34506;BME280;20748;42.632;23.198;2022-10-16T12:03:19;92800.69;;;16.77;39.66
34506;BME280;20748;42.632;23.198;2022-10-16T12:05:55;92799.22;;;16.97;39.24
34506;BME280;20748;42.632;23.198;2022-10-16T12:08:30;92799.06;;;16.94;39.21
34506;BME280;20748;42.632;23.198;2022-10-16T12:11:08;92797.66;;;16.96;39.04
34506;BME280;20748;42.632;23.198;2022-10-16T12:13:41;92799.25;;;16.88;38.51
34506;BME280;20748;42.632;23.198;2022-10-16T12:16:20;92790.94;;;16.69;38.11
34506;BME280;20748;42.632;23.198;2022-10-16T12:19:03;92798.53;;;16.70;38.01
34506;BME280;20748;42.632;23.198;2022-10-16T12:21:41;92794.81;;;16.71;39.02
34506;BME280;20748;42.632;23.198;2022-10-16T12:24:20;92804.13;;;16.69;38.24
34506;BME280;20748;42.632;23.198;2022-10-16T12:26:53;92808.38;;;16.52;37.96
34506;BME280;20748;42.632;23.198;2022-10-16T12:29:28;92809.59;;;16.63;37.79
34506;BME280;20748;42.632;23.198;2022-10-16T12:32:03;92804.09;;;16.77;37.48
34506;BME280;20748;42.632;23.198;2022-10-16T12:34:38;92805.22;;;16.68;38.71
34506;BME280;20748;42.632;23.198;2022-10-16T12:37:13;92804.00;;;16.56;38.10
34506;BME280;20748;42.632;23.198;2022-10-16T12:39:45;92802.47;;;16.55;37.71
34506;BME280;20748;42.632;23.198;2022-10-16T12:42:33;92797.84;;;16.52;38.77
34506;BME280;20748;42.632;23.198;2022-10-16T12:45:21;92799.22;;;16.58;38.57
34506;BME280;20748;42.632;23.198;2022-10-16T12:47:56;92797.94;;;16.73;38.62
34506;BME280;20748;42.632;23.198;2022-10-16T12:50:30;92797.81;;;16.61;39.11
34506;BME280;20748;42.632;23.198;2022-10-16T12:53:04;92802.03;;;16.53;39.13
34506;BME280;20748;42.632;23.198;2022-10-16T12:55:42;92804.97;;;16.51;38.85
34506;BME280;20748;42.632;23.198;2022-10-16T12:58:21;92812.31;;;16.76;39.87
34506;BME280;20748;42.632;23.198;2022-10-16T13:00:56;92816.25;;;16.61;39.05
34506;BME280;20748;42.632;23.198;2022-10-16T13:06:35;92810.25;;;16.51;40.04
34506;BME280;20748;42.632;23.198;2022-10-16T13:09:25;92810.50;;;16.59;39.42
34506;BME280;20748;42.632;23.198;2022-10-16T13:12:06;92805.28;;;16.50;40.73
34506;BME280;20748;42.632;23.198;2022-10-16T13:17:30;92808.19;;;16.57;41.13
34506;BME280;20748;42.632;23.198;2022-10-16T13:20:11;92810.31;;;16.73;40.30
34506;BME280;20748;42.632;23.198;2022-10-16T13:22:48;92805.50;;;16.75;39.46
34506;BME280;20748;42.632;23.198;2022-10-16T13:25:31;92813.78;;;16.56;39.54
34506;BME280;20748;42.632;23.198;2022-10-16T13:28:06;92824.97;;;16.44;39.27
34506;BME280;20748;42.632;23.198;2022-10-16T13:30:39;92819.66;;;16.61;40.42
34506;BME280;20748;42.632;23.198;2022-10-16T13:33:13;92818.41;;;16.59;40.15
34506;BME280;20748;42.632;23.198;2022-10-16T13:35:48;92826.03;;;16.51;40.75
34506;BME280;20748;42.632;23.198;2022-10-16T13:38:22;92817.81;;;16.53;40.47
34506;BME280;20748;42.632;23.198;2022-10-16T13:40:55;92823.28;;;16.39;41.04